Weather History for Orr, MN

Change the Weather History Date:

Sunday, February 26, 2012

  Actual Average Record
Temperature  
Mean Temperature 20 °F -  
Max Temperature 26 °F 23 °F 44 °F (1999)
Min Temperature 14 °F 6 °F -32 °F (2011)
Degree Days  
Heating Degree Days 45    
Moisture  
Dew Point 16 °F    
Average Humidity 83    
Maximum Humidity 93    
Minimum Humidity 74    
Precipitation  
Precipitation 0.03 in - - ()
Sea Level Pressure  
Sea Level Pressure 29.84 in    
Wind  
Wind Speed 6 mph (East)    
Max Wind Speed 10 mph    
Max Gust Speed 18 mph    
Visibility 4 miles    
Events Snow    
Averages and records for this station are not official NWS values.
T = Trace of Precipitation, MM = Missing Value Source: NWS Daily Summary

Daily Weather History Graph

Daily Weather History Graph

Search for Another Location

Airport:

Trip Planner

Search our weather history database for the weather conditions in past years. The results will help you decide how hot, cold, wet, or windy it might be!

Date:

Astronomy

Feb. 26, 2012 Rise Set
Actual Time 6:58 AM CST 5:50 PM CST
Civil Twilight 6:27 AM CST 6:21 PM CST
Nautical Twilight 5:51 AM CST 6:57 PM CST
Astronomical Twilight 5:15 AM CST 7:33 PM CST
Moon 8:28 AM CST (2/26) 11:17 PM CST (2/26)
Length of Visible Light 11h 54m
Length of Day
10h 51m
Waxing Crescent, 21% of the Moon is Illuminated
Feb 26
Waxing Crescent
Feb 29
First Quarter
Mar 8
Full
Mar 14
Last Quarter
Mar 22
New

Hourly Weather History & Observations

Time (CST) Temp. Windchill Dew Point Humidity Pressure Visibility Wind Dir Wind Speed Gust Speed Precip Events Conditions
12:15 AM 14.0 °F 5.1 °F 10.4 °F 86% 30.07 in 10.0 mi East 5.8 mph - N/A   Scattered Clouds
12:34 AM 15.8 °F 6.1 °F 10.4 °F 79% 30.06 in 10.0 mi East 6.9 mph - N/A   Mostly Cloudy
12:54 AM 15.8 °F 10.2 °F 10.4 °F 79% 30.05 in 10.0 mi East 3.5 mph - N/A   Mostly Cloudy
1:14 AM 15.8 °F 10.2 °F 10.4 °F 79% 30.05 in 10.0 mi East 3.5 mph - N/A   Mostly Cloudy
1:35 AM 15.8 °F 8.6 °F 10.4 °F 79% 30.04 in 10.0 mi ESE 4.6 mph - N/A   Overcast
1:54 AM 15.8 °F 10.2 °F 10.4 °F 79% 30.04 in 10.0 mi ESE 3.5 mph - N/A   Overcast
2:15 AM 15.8 °F 7.2 °F 10.4 °F 79% 30.03 in 10.0 mi ESE 5.8 mph - N/A   Overcast
2:34 AM 15.8 °F 10.2 °F 10.4 °F 79% 30.03 in 10.0 mi ESE 3.5 mph - N/A   Overcast
2:54 AM 15.8 °F 8.6 °F 10.4 °F 79% 30.03 in 10.0 mi East 4.6 mph - N/A   Overcast
3:14 AM 15.8 °F 8.6 °F 10.4 °F 79% 30.01 in 10.0 mi East 4.6 mph - N/A   Overcast
3:34 AM 17.6 °F 9.3 °F 12.2 °F 79% 29.99 in 10.0 mi East 5.8 mph - N/A   Overcast
3:54 AM 17.6 °F 9.3 °F 12.2 °F 79% 29.98 in 10.0 mi East 5.8 mph - N/A   Overcast
4:34 AM 17.6 °F 8.2 °F 12.2 °F 79% 29.97 in 10.0 mi East 6.9 mph - N/A   Overcast
4:55 AM 17.6 °F 9.3 °F 12.2 °F 79% 29.96 in 10.0 mi East 5.8 mph - N/A   Overcast
5:14 AM 19.4 °F 12.8 °F 14.0 °F 80% 29.95 in 10.0 mi East 4.6 mph - N/A   Overcast
5:34 AM 19.4 °F 11.5 °F 14.0 °F 80% 29.93 in 10.0 mi East 5.8 mph - N/A   Overcast
6:14 AM 19.4 °F 9.5 °F 14.0 °F 80% 29.91 in 7.0 mi ESE 8.1 mph - N/A Snow Light Snow
6:34 AM 19.4 °F 10.4 °F 15.8 °F 86% 29.90 in 4.0 mi East 6.9 mph - N/A Snow Light Snow
6:54 AM 19.4 °F 11.5 °F 15.8 °F 86% 29.89 in 3.0 mi ESE 5.8 mph - N/A Snow Light Snow
7:14 AM 19.4 °F 10.4 °F 15.8 °F 86% 29.86 in 1.0 mi East 6.9 mph - N/A Snow Light Snow
7:34 AM 19.4 °F 9.5 °F 15.8 °F 86% 29.85 in 1.0 mi ESE 8.1 mph - N/A Snow Light Snow
8:14 AM 21.2 °F 11.7 °F 17.6 °F 86% 29.84 in 1.8 mi East 8.1 mph 17.3 mph N/A Snow Light Snow
9:14 AM 21.2 °F 11.7 °F 17.6 °F 86% 29.84 in 1.8 mi East 8.1 mph - N/A Snow Light Snow
9:34 AM 21.2 °F 12.6 °F 17.6 °F 86% 29.84 in 0.8 mi East 6.9 mph - N/A   Overcast
9:54 AM 21.2 °F 10.9 °F 19.4 °F 93% 29.82 in 0.5 mi East 9.2 mph - N/A   Overcast
10:14 AM 23.0 °F 13.1 °F 19.4 °F 86% 29.81 in 0.8 mi East 9.2 mph - N/A Snow Light Snow
10:34 AM 23.0 °F 15.8 °F 19.4 °F 86% 29.79 in 1.0 mi East 5.8 mph 16.1 mph N/A Snow Light Snow
10:54 AM 23.0 °F 15.8 °F 19.4 °F 86% 29.78 in 1.2 mi East 5.8 mph 16.1 mph N/A Snow Light Snow
11:14 AM 23.0 °F 15.8 °F 19.4 °F 86% 29.76 in 0.8 mi East 5.8 mph 18.4 mph N/A Snow Light Snow
11:35 AM 23.0 °F 13.1 °F 19.4 °F 86% 29.76 in 2.0 mi East 9.2 mph 18.4 mph N/A Snow Light Snow
11:54 AM 24.8 °F 16.1 °F 19.4 °F 80% 29.75 in 2.5 mi East 8.1 mph - N/A Snow Light Snow
12:15 PM 24.8 °F 17.9 °F 19.4 °F 80% 29.75 in 1.0 mi East 5.8 mph - N/A Snow Light Snow
12:34 PM 26.6 °F 18.2 °F 19.4 °F 74% 29.74 in 2.5 mi East 8.1 mph - N/A Snow Light Snow
12:54 PM 26.6 °F 16.8 °F 19.4 °F 74% 29.73 in 2.0 mi East 10.4 mph - 0.01 in Snow Light Snow
1:15 PM 26.6 °F 17.5 °F 21.2 °F 80% 29.72 in 1.2 mi East 9.2 mph - 0.01 in Snow Light Snow
1:35 PM 26.6 °F 21.2 °F 21.2 °F 80% 29.71 in 1.8 mi East 4.6 mph - 0.01 in Snow Light Snow
1:54 PM 26.6 °F 17.5 °F 21.2 °F 80% 29.71 in 1.8 mi East 9.2 mph - 0.01 in Snow Light Snow
2:14 PM 26.6 °F 18.2 °F 21.2 °F 80% 29.71 in 1.8 mi East 8.1 mph - N/A Snow Light Snow
2:34 PM 26.6 °F 19.1 °F 21.2 °F 80% 29.71 in 1.5 mi East 6.9 mph - N/A Snow Light Snow
2:55 PM 26.6 °F 19.1 °F 21.2 °F 80% 29.72 in 1.8 mi East 6.9 mph - N/A Snow Light Snow
3:14 PM 26.6 °F 22.6 °F 21.2 °F 80% 29.73 in 1.5 mi ENE 3.5 mph - N/A Snow Light Snow
3:34 PM 24.8 °F 19.1 °F 19.4 °F 80% 29.73 in 1.2 mi NNE 4.6 mph - N/A Snow Light Snow
3:54 PM 24.8 °F 17.9 °F 19.4 °F 80% 29.73 in 1.0 mi NE 5.8 mph - N/A Snow Light Snow
4:14 PM 24.8 °F 19.1 °F 19.4 °F 80% 29.73 in 0.8 mi ENE 4.6 mph - N/A Snow Snow
4:35 PM 24.8 °F - 21.2 °F 86% 29.74 in 1.0 mi Calm Calm - N/A Snow Light Snow
4:54 PM 24.8 °F 17.9 °F 21.2 °F 86% 29.74 in 0.8 mi NE 5.8 mph - N/A Snow Light Snow
5:14 PM 24.8 °F 20.5 °F 19.4 °F 80% 29.75 in 1.0 mi NNE 3.5 mph - N/A Snow Light Snow
5:34 PM 23.0 °F 18.4 °F 19.4 °F 86% 29.75 in 1.5 mi NNE 3.5 mph - N/A Snow Light Snow
5:54 PM 23.0 °F 17.0 °F 19.4 °F 86% 29.76 in 1.5 mi NNE 4.6 mph - N/A Snow Light Snow
6:15 PM 23.0 °F 15.8 °F 19.4 °F 86% 29.77 in 1.8 mi NNE 5.8 mph - 0.01 in Snow Light Snow
6:34 PM 21.2 °F 16.4 °F 19.4 °F 93% 29.77 in 2.0 mi NNE 3.5 mph - 0.01 in Snow Light Snow
6:54 PM 21.2 °F 14.9 °F 17.6 °F 86% 29.78 in 3.0 mi NNE 4.6 mph - 0.01 in Snow Light Snow
7:14 PM 19.4 °F 12.8 °F 15.8 °F 86% 29.79 in 4.0 mi NNE 4.6 mph - N/A Snow Light Snow
7:34 PM 19.4 °F 14.3 °F 15.8 °F 86% 29.80 in 7.0 mi NNE 3.5 mph - N/A Snow Light Snow
7:54 PM 19.4 °F 14.3 °F 15.8 °F 86% 29.81 in 3.0 mi NNE 3.5 mph - N/A Snow Light Snow
8:14 PM 19.4 °F 11.5 °F 15.8 °F 86% 29.82 in 3.0 mi North 5.8 mph - N/A Snow Light Snow
8:34 PM 17.6 °F - 14.0 °F 86% 29.82 in 4.0 mi Calm Calm - N/A Snow Light Snow
8:55 PM 15.8 °F 10.2 °F 12.2 °F 86% 29.82 in 7.0 mi North 3.5 mph - N/A Snow Light Snow
9:14 PM 15.8 °F - 10.4 °F 79% 29.84 in 7.0 mi Calm Calm - N/A   Overcast
9:35 PM 15.8 °F - 10.4 °F 79% 29.85 in 10.0 mi Calm Calm - N/A Snow Light Snow
9:54 PM 15.8 °F 10.2 °F 10.4 °F 79% 29.86 in 10.0 mi North 3.5 mph - N/A   Overcast
10:14 PM 15.8 °F - 10.4 °F 79% 29.87 in 10.0 mi Calm Calm - N/A   Overcast
10:34 PM 14.0 °F - 10.4 °F 86% 29.87 in 10.0 mi Calm Calm - N/A   Overcast
10:54 PM 14.0 °F - 10.4 °F 86% 29.89 in 7.0 mi Calm Calm - N/A Snow Light Snow
11:14 PM 14.0 °F 8.2 °F 10.4 °F 86% 29.90 in 5.0 mi NW 3.5 mph - N/A Snow Light Snow
11:34 PM 14.0 °F - 10.4 °F 86% 29.90 in 3.0 mi Calm Calm - N/A Snow Light Snow
11:55 PM 14.0 °F 8.2 °F 8.6 °F 79% 29.91 in 4.0 mi NW 3.5 mph - N/A Snow Light Snow